Time;durP1;ratioP1;P1;durP2;ratioP2;P2;SDS_P1;SDS_P2;PMS_P1;PMS_P2;Temp;Humidity;BMP_temperature;BMP_pressure;BME280_temperature;BME280_humidity;BME280_pressure;Samples;Min_cycle;Max_cycle;Signal;HPM_P1;HPM_P2
2021/08/20 00:01:16;;;;;;;2.40;2.20;;;19.90;99.90;;;;;;10397596;28;20693;-82
2021/08/20 00:06:18;;;;;;;2.87;2.67;;;19.90;99.90;;;;;;10417061;28;20204;-82
2021/08/20 00:11:21;;;;;;;3.27;2.97;;;19.90;99.90;;;;;;10382367;28;20257;-82
2021/08/20 00:16:24;;;;;;;2.73;2.40;;;19.90;99.90;;;;;;10382498;28;20216;-82
2021/08/20 00:21:26;;;;;;;2.43;2.33;;;19.90;99.90;;;;;;10382959;28;20218;-82
2021/08/20 00:26:29;;;;;;;5.27;2.70;;;19.90;99.90;;;;;;10384294;28;20202;-82
2021/08/20 00:31:32;;;;;;;2.00;1.90;;;19.80;99.90;;;;;;10383660;28;20541;-83
2021/08/20 00:36:36;;;;;;;4.33;2.30;;;19.70;99.90;;;;;;10384973;28;20279;-83
2021/08/20 00:41:40;;;;;;;2.23;2.13;;;19.70;99.90;;;;;;10384611;28;20701;-83
2021/08/20 00:46:44;;;;;;;2.03;1.93;;;19.70;99.90;;;;;;10400012;28;20206;-83
2021/08/20 00:51:49;;;;;;;2.30;2.20;;;19.70;99.90;;;;;;10418576;28;20225;-83
2021/08/20 00:56:52;;;;;;;2.37;2.27;;;19.70;99.90;;;;;;10401179;28;20204;-83
2021/08/20 01:01:55;;;;;;;3.70;2.00;;;19.70;99.90;;;;;;10380279;28;20517;-83
2021/08/20 01:06:58;;;;;;;2.20;2.10;;;19.70;99.90;;;;;;10401809;28;20243;-83
2021/08/20 01:12:02;;;;;;;2.20;2.10;;;19.80;99.90;;;;;;10401237;28;20236;-83
2021/08/20 01:17:07;;;;;;;2.13;2.03;;;19.80;99.90;;;;;;10382714;28;20304;-83
2021/08/20 01:22:12;;;;;;;2.53;2.33;;;19.70;99.90;;;;;;10400233;28;20224;-83
2021/08/20 01:27:20;;;;;;;2.77;2.57;;;19.80;99.90;;;;;;10399517;28;20202;-83
2021/08/20 01:32:23;;;;;;;2.50;2.30;;;19.70;99.90;;;;;;10398350;28;20309;-83
2021/08/20 01:37:25;;;;;;;3.77;2.60;;;19.80;99.90;;;;;;10400881;28;20229;-83
2021/08/20 01:42:29;;;;;;;2.90;2.70;;;19.80;99.90;;;;;;10382669;28;20204;-83
2021/08/20 01:47:31;;;;;;;4.03;2.80;;;19.80;99.90;;;;;;10383606;28;20233;-83
2021/08/20 01:52:33;;;;;;;3.23;2.50;;;19.80;99.90;;;;;;10389273;28;20221;-82
2021/08/20 01:57:41;;;;;;;2.80;2.60;;;19.80;99.90;;;;;;10397932;28;20253;-83
2021/08/20 02:02:44;;;;;;;2.13;2.03;;;19.80;99.90;;;;;;10392754;28;20297;-83
2021/08/20 02:07:51;;;;;;;2.60;2.50;;;19.70;99.90;;;;;;10391318;28;20868;-82
2021/08/20 02:12:59;;;;;;;2.27;2.17;;;19.70;99.90;;;;;;10412438;28;20228;-82
2021/08/20 02:18:05;;;;;;;2.60;2.50;;;19.70;99.90;;;;;;10407691;28;20218;-83
2021/08/20 02:23:07;;;;;;;2.80;2.60;;;19.70;99.90;;;;;;10394366;28;20202;-82
2021/08/20 02:28:14;;;;;;;2.80;2.60;;;19.70;99.90;;;;;;10394008;28;20279;-83
2021/08/20 02:33:16;;;;;;;2.43;2.33;;;19.70;99.90;;;;;;10393059;28;20927;-83
2021/08/20 02:38:19;;;;;;;3.80;2.20;;;19.60;99.90;;;;;;10407116;28;20226;-83
2021/08/20 02:43:23;;;;;;;2.47;2.27;;;19.60;99.90;;;;;;10386708;28;20588;-83
2021/08/20 02:48:25;;;;;;;2.10;2.00;;;19.60;99.90;;;;;;10411065;28;20288;-83
2021/08/20 02:53:28;;;;;;;2.30;2.20;;;19.70;99.90;;;;;;10390540;28;20316;-83
2021/08/20 02:58:33;;;;;;;2.67;2.47;;;19.60;99.90;;;;;;10401513;28;20229;-83
2021/08/20 03:03:37;;;;;;;2.50;2.40;;;19.60;99.90;;;;;;10384559;28;20248;-83
2021/08/20 03:08:48;;;;;;;2.60;2.50;;;19.70;99.90;;;;;;10403159;28;20837;-83
2021/08/20 03:13:53;;;;;;;2.83;2.63;;;19.60;99.90;;;;;;10409567;28;20690;-83
2021/08/20 03:18:57;;;;;;;2.83;2.63;;;19.60;99.90;;;;;;10409504;28;20222;-83
2021/08/20 03:23:59;;;;;;;2.30;2.20;;;19.60;99.90;;;;;;10408949;28;20202;-83
2021/08/20 03:29:05;;;;;;;2.83;2.53;;;19.60;99.90;;;;;;10392501;28;20237;-83
2021/08/20 03:34:11;;;;;;;2.70;2.60;;;19.50;99.90;;;;;;10394333;28;20245;-83
2021/08/20 03:39:14;;;;;;;2.53;2.33;;;19.50;99.90;;;;;;10410978;28;20304;-83
2021/08/20 03:44:19;;;;;;;3.03;2.80;;;19.50;99.90;;;;;;10394682;28;20273;-83
2021/08/20 03:49:25;;;;;;;3.30;3.10;;;19.60;99.90;;;;;;10411359;28;20313;-83
2021/08/20 03:54:28;;;;;;;3.90;3.10;;;19.60;99.90;;;;;;10395062;28;20317;-83
2021/08/20 03:59:33;;;;;;;2.97;2.77;;;19.60;99.90;;;;;;10412381;28;20222;-82
2021/08/20 04:04:42;;;;;;;3.07;2.60;;;19.60;99.90;;;;;;10397675;28;20720;-83
2021/08/20 04:10:14;;;;;;;3.50;3.20;;;19.60;99.90;;;;;;10393201;28;20674;-83
2021/08/20 04:15:39;;;;;;;3.10;2.90;;;19.60;99.90;;;;;;10388938;28;20230;-83
2021/08/20 04:20:42;;;;;;;2.70;2.60;;;19.60;99.90;;;;;;10404881;28;20224;-83
2021/08/20 04:25:45;;;;;;;3.20;3.00;;;19.60;99.90;;;;;;10388322;28;20695;-82
2021/08/20 04:31:07;;;;;;;3.10;2.90;;;19.60;99.90;;;;;;10403651;28;20312;-82
2021/08/20 04:36:28;;;;;;;3.40;3.10;;;19.60;99.90;;;;;;10397345;28;20202;-83
2021/08/20 04:41:59;;;;;;;3.30;3.00;;;19.60;99.90;;;;;;10367858;28;20229;-83
2021/08/20 04:47:26;;;;;;;3.10;2.80;;;19.60;99.90;;;;;;10405243;28;20213;-83
2021/08/20 04:52:42;;;;;;;2.87;2.70;;;19.60;99.90;;;;;;10404033;28;20296;-83
2021/08/20 04:58:06;;;;;;;3.33;3.13;;;19.60;99.90;;;;;;10386720;28;20295;-83
2021/08/20 05:03:09;;;;;;;3.27;3.07;;;19.60;99.90;;;;;;10402656;28;20261;-83
2021/08/20 05:08:11;;;;;;;3.87;3.57;;;19.70;99.90;;;;;;10422507;28;20222;-83
2021/08/20 05:13:14;;;;;;;3.63;3.33;;;19.70;99.90;;;;;;10386008;28;20236;-83
2021/08/20 05:18:17;;;;;;;2.80;2.60;;;19.70;99.90;;;;;;10404201;28;20301;-83
2021/08/20 05:23:19;;;;;;;3.50;3.20;;;19.70;99.90;;;;;;10403036;28;20194;-83
2021/08/20 05:28:21;;;;;;;4.20;3.80;;;19.80;99.90;;;;;;10422516;28;20240;-83
2021/08/20 05:33:25;;;;;;;3.87;3.67;;;19.80;99.90;;;;;;10386369;28;20242;-83
2021/08/20 05:38:27;;;;;;;4.83;3.43;;;19.90;99.90;;;;;;10387384;28;20249;-83
2021/08/20 05:43:31;;;;;;;3.83;3.53;;;19.90;99.90;;;;;;10387896;28;20753;-83
2021/08/20 05:55:04;;;;;;;3.33;3.03;;;20.00;99.90;;;;;;10476471;28;20216;-84
2021/08/20 06:00:08;;;;;;;3.63;3.33;;;20.10;99.90;;;;;;10461035;28;20231;-84
2021/08/20 06:05:14;;;;;;;3.40;3.20;;;20.10;99.90;;;;;;10476577;28;20208;-84
2021/08/20 06:10:18;;;;;;;3.43;3.13;;;20.30;99.90;;;;;;10460011;28;20232;-83
2021/08/20 06:15:20;;;;;;;3.30;3.00;;;20.40;99.90;;;;;;10458391;28;20228;-83
2021/08/20 06:20:22;;;;;;;3.77;3.50;;;20.50;99.90;;;;;;10459413;28;20312;-84
2021/08/20 06:25:26;;;;;;;4.33;3.93;;;20.70;99.90;;;;;;10476188;28;20219;-84
2021/08/20 06:30:28;;;;;;;3.87;3.57;;;20.80;99.90;;;;;;10434306;28;20278;-83
2021/08/20 06:35:30;;;;;;;4.00;3.70;;;21.00;99.90;;;;;;10457193;28;20224;-84
2021/08/20 06:40:34;;;;;;;6.40;4.50;;;21.10;99.90;;;;;;10482563;28;20248;-84
2021/08/20 06:45:36;;;;;;;4.10;3.90;;;21.20;99.90;;;;;;10478896;28;20200;-84
2021/08/20 06:50:38;;;;;;;5.10;4.70;;;21.40;99.90;;;;;;10476701;28;20228;-83
2021/08/20 06:55:42;;;;;;;5.87;5.13;;;21.50;99.90;;;;;;10475631;28;20224;-84
2021/08/20 07:00:44;;;;;;;5.17;4.87;;;21.60;99.90;;;;;;10482693;28;20247;-84
2021/08/20 07:05:46;;;;;;;5.13;4.73;;;21.60;99.90;;;;;;10481291;28;20212;-84
2021/08/20 07:10:50;;;;;;;7.87;5.83;;;21.50;99.90;;;;;;10481836;28;20270;-84
2021/08/20 07:21:32;;;;;;;6.63;6.20;;;21.40;99.90;;;;;;10462714;28;20294;-83
2021/08/20 07:26:36;;;;;;;6.30;5.80;;;21.40;99.90;;;;;;10480603;28;20227;-83
2021/08/20 07:31:38;;;;;;;6.60;5.73;;;21.40;99.90;;;;;;10496442;28;20216;-84
2021/08/20 07:36:40;;;;;;;6.60;6.10;;;21.60;99.90;;;;;;10502439;28;20216;-83
2021/08/20 07:41:44;;;;;;;8.80;5.60;;;21.80;99.90;;;;;;10497758;28;20638;-84
2021/08/20 07:46:46;;;;;;;6.47;5.93;;;22.00;99.90;;;;;;10484743;28;20231;-84
2021/08/20 07:51:48;;;;;;;6.30;5.70;;;22.40;99.90;;;;;;10479522;28;20774;-84
2021/08/20 07:56:51;;;;;;;6.70;6.20;;;22.60;99.90;;;;;;10471431;28;20295;-84
2021/08/20 08:01:53;;;;;;;6.20;5.80;;;22.70;99.90;;;;;;10497000;28;20715;-84
2021/08/20 08:06:56;;;;;;;6.10;5.50;;;22.60;99.90;;;;;;10497462;28;20239;-84
2021/08/20 08:12:45;;;;;;;5.07;4.70;;;22.70;99.90;;;;;;10461946;28;20224;-84
2021/08/20 08:24:27;;;;;;;5.83;5.43;;;23.20;99.90;;;;;;10458076;28;20307;-84
2021/08/20 08:30:24;;;;;;;5.90;5.40;;;23.50;99.90;;;;;;10471239;28;20220;-84
2021/08/20 08:41:22;;;;;;;5.10;4.60;;;23.60;99.90;;;;;;10449479;28;20224;-83
2021/08/20 08:47:02;;;;;;;10.33;5.30;;;23.50;99.90;;;;;;10448614;28;20680;-84
2021/08/20 08:52:21;;;;;;;6.70;5.10;;;23.40;99.90;;;;;;10447252;28;20705;-83
2021/08/20 08:57:27;;;;;;;5.33;4.83;;;23.20;99.90;;;;;;10471357;28;20196;-84
2021/08/20 09:02:53;;;;;;;4.67;4.27;;;23.40;99.90;;;;;;10439565;28;20212;-84
2021/08/20 09:08:12;;;;;;;7.63;4.97;;;23.60;99.90;;;;;;10432755;28;20274;-83
2021/08/20 09:13:43;;;;;;;6.30;5.80;;;23.70;99.90;;;;;;10458509;28;20228;-83
2021/08/20 09:19:08;;;;;;;6.17;5.77;;;23.50;99.90;;;;;;10428541;28;20221;-84
2021/08/20 09:24:33;;;;;;;8.43;7.63;;;23.20;99.90;;;;;;10485079;28;20187;-83
2021/08/20 09:29:35;;;;;;;7.47;6.73;;;23.00;99.90;;;;;;10481872;28;20225;-84
2021/08/20 09:34:50;;;;;;;7.93;7.20;;;23.00;99.90;;;;;;10474024;28;20663;-83
2021/08/20 09:39:57;;;;;;;7.40;6.83;;;23.20;99.90;;;;;;10475351;28;20224;-84
2021/08/20 09:45:14;;;;;;;6.73;6.23;;;23.40;99.90;;;;;;10467289;28;20242;-83
2021/08/20 09:50:19;;;;;;;5.90;5.50;;;23.90;99.90;;;;;;10492809;28;20240;-83
2021/08/20 09:55:37;;;;;;;5.60;5.20;;;24.30;99.90;;;;;;10474732;28;20309;-83
2021/08/20 10:00:41;;;;;;;6.00;5.40;;;24.60;99.90;;;;;;10474995;28;20255;-84
2021/08/20 10:05:49;;;;;;;6.47;5.97;;;24.90;99.90;;;;;;10451686;28;20580;-83
2021/08/20 10:10:54;;;;;;;5.10;4.80;;;25.10;99.90;;;;;;10459383;28;20677;-83
2021/08/20 10:23:16;;;;;;;6.47;5.80;;;25.90;99.90;;;;;;10428908;28;20552;-84
2021/08/20 10:28:19;;;;;;;4.63;4.33;;;25.70;99.40;;;;;;10433160;28;20223;-83
2021/08/20 10:33:31;;;;;;;5.60;5.07;;;25.30;99.90;;;;;;10460346;28;20567;-83
2021/08/20 10:38:41;;;;;;;5.30;4.90;;;24.90;99.90;;;;;;10465038;28;20228;-83
2021/08/20 10:44:16;;;;;;;5.40;5.00;;;24.60;99.90;;;;;;10442796;28;20273;-83
2021/08/20 10:49:20;;;;;;;5.73;5.20;;;24.50;99.90;;;;;;10437239;28;20319;-83
2021/08/20 10:55:02;;;;;;;4.80;4.40;;;24.40;99.90;;;;;;10433292;28;20711;-84
2021/08/20 11:00:08;;;;;;;6.20;5.70;;;24.30;99.90;;;;;;10432674;28;20220;-83
2021/08/20 11:05:14;;;;;;;5.23;4.77;;;24.00;99.90;;;;;;10462274;28;20248;-83
2021/08/20 11:10:32;;;;;;;5.13;4.83;;;23.80;99.90;;;;;;10454004;28;20270;-83
2021/08/20 11:15:44;;;;;;;5.60;5.03;;;23.60;99.90;;;;;;10467745;28;20197;-83
2021/08/20 11:20:47;;;;;;;5.80;5.40;;;23.50;99.90;;;;;;10471469;28;20220;-84
2021/08/20 11:25:50;;;;;;;5.97;5.53;;;23.50;99.90;;;;;;10445653;28;20599;-83
2021/08/20 11:30:59;;;;;;;6.10;5.60;;;23.60;99.90;;;;;;10445117;28;20593;-83
2021/08/20 11:36:03;;;;;;;5.03;4.73;;;23.80;99.90;;;;;;10454128;28;20193;-83
2021/08/20 11:41:09;;;;;;;5.70;5.30;;;23.90;99.90;;;;;;10480563;28;20217;-83
2021/08/20 11:46:13;;;;;;;4.97;4.67;;;23.80;99.90;;;;;;10472554;28;20688;-83
2021/08/20 11:51:24;;;;;;;5.00;4.70;;;23.70;99.20;;;;;;10504233;22;20220;-82
2021/08/20 11:56:27;;;;;;;5.40;5.10;;;23.60;99.90;;;;;;10471150;28;20271;-82
2021/08/20 12:01:34;;;;;;;5.33;4.90;;;23.80;99.30;;;;;;10486580;28;20228;-83
2021/08/20 12:06:38;;;;;;;6.07;5.60;;;23.90;98.90;;;;;;10486122;28;20215;-83
2021/08/20 12:11:42;;;;;;;5.83;5.00;;;24.00;98.80;;;;;;10472013;28;20467;-83
2021/08/20 12:16:48;;;;;;;4.80;4.50;;;23.90;98.60;;;;;;10474771;28;20197;-82
2021/08/20 12:21:52;;;;;;;5.10;4.70;;;23.90;98.00;;;;;;10478827;28;20768;-82
2021/08/20 12:27:09;;;;;;;4.90;4.50;;;23.80;99.90;;;;;;10484552;28;20208;-82
2021/08/20 12:32:21;;;;;;;5.03;4.50;;;23.70;98.30;;;;;;10482286;28;20216;-83
2021/08/20 12:37:23;;;;;;;5.40;5.00;;;23.70;97.60;;;;;;10486105;28;20193;-83
2021/08/20 12:42:27;;;;;;;5.47;5.07;;;23.70;99.80;;;;;;10473796;28;20255;-83
2021/08/20 12:47:31;;;;;;;5.17;4.87;;;23.60;99.90;;;;;;10497618;28;20243;-83
2021/08/20 12:52:34;;;;;;;4.80;4.50;;;23.60;99.90;;;;;;10480996;28;20248;-83
2021/08/20 12:57:36;;;;;;;5.37;5.00;;;23.50;99.90;;;;;;10482317;28;20222;-83
2021/08/20 13:02:40;;;;;;;5.10;4.80;;;23.60;99.90;;;;;;10485860;28;20660;-83
2021/08/20 13:07:42;;;;;;;4.90;4.60;;;23.50;99.80;;;;;;10485230;28;20273;-83
2021/08/20 13:12:45;;;;;;;4.27;3.97;;;23.40;99.90;;;;;;10487495;28;20308;-83
2021/08/20 13:17:52;;;;;;;4.80;4.50;;;23.40;99.90;;;;;;10477917;28;20205;-83
2021/08/20 13:22:56;;;;;;;5.37;4.97;;;23.30;99.90;;;;;;10500152;28;20222;-83
2021/08/20 13:27:58;;;;;;;4.37;4.17;;;23.30;99.90;;;;;;10464691;28;20224;-83
2021/08/20 13:33:02;;;;;;;4.20;3.90;;;23.30;99.90;;;;;;10468424;28;20228;-82
2021/08/20 13:38:07;;;;;;;5.30;4.83;;;23.20;99.10;;;;;;10478197;28;20199;-82
2021/08/20 13:43:11;;;;;;;4.63;4.33;;;23.30;98.50;;;;;;10461420;28;20204;-83
2021/08/20 13:48:16;;;;;;;4.70;4.33;;;23.30;99.90;;;;;;10475395;28;20199;-83
2021/08/20 13:53:18;;;;;;;5.00;4.70;;;23.50;99.90;;;;;;10468448;28;20201;-83
2021/08/20 13:58:22;;;;;;;5.03;4.73;;;23.60;98.70;;;;;;10485035;28;20291;-83
2021/08/20 14:03:25;;;;;;;5.77;4.80;;;23.70;98.70;;;;;;10457580;28;20284;-83
2021/08/20 14:08:29;;;;;;;4.20;3.80;;;23.80;99.90;;;;;;10472831;28;20200;-83
2021/08/20 14:13:32;;;;;;;4.30;4.00;;;23.80;97.40;;;;;;10465975;28;20647;-83
2021/08/20 14:18:35;;;;;;;4.40;4.00;;;23.90;98.20;;;;;;10475564;28;20232;-83
2021/08/20 14:23:38;;;;;;;3.90;3.70;;;24.00;98.80;;;;;;10476020;28;20217;-83
2021/08/20 14:28:45;;;;;;;4.37;4.07;;;24.20;97.40;;;;;;10461733;28;20723;-82
2021/08/20 14:33:48;;;;;;;4.73;4.43;;;24.30;97.70;;;;;;10478374;28;20733;-82
2021/08/20 14:38:50;;;;;;;4.90;4.60;;;24.60;96.70;;;;;;10462462;28;20228;-82
2021/08/20 14:43:52;;;;;;;5.00;4.70;;;24.80;96.80;;;;;;10462062;28;20643;-83
2021/08/20 14:48:56;;;;;;;4.63;4.33;;;24.90;97.50;;;;;;10460528;28;20236;-82
2021/08/20 14:53:59;;;;;;;4.43;4.13;;;24.80;96.50;;;;;;10455320;28;20204;-82
2021/08/20 14:59:04;;;;;;;4.30;4.00;;;24.70;96.40;;;;;;10480024;28;20263;-82
2021/08/20 15:04:07;;;;;;;5.60;5.20;;;24.50;95.30;;;;;;10490017;28;20208;-83
2021/08/20 15:09:09;;;;;;;4.47;4.27;;;24.30;96.20;;;;;;10506244;28;20223;-83
2021/08/20 15:14:11;;;;;;;5.00;4.70;;;24.30;96.10;;;;;;10485470;28;20295;-83
2021/08/20 15:19:15;;;;;;;4.60;4.30;;;24.20;98.70;;;;;;10487261;28;20228;-83
2021/08/20 15:24:17;;;;;;;4.60;4.20;;;24.10;96.30;;;;;;10465696;28;20221;-84
2021/08/20 15:29:19;;;;;;;4.00;3.70;;;24.10;97.80;;;;;;10467830;28;20221;-84
2021/08/20 15:34:23;;;;;;;4.40;4.00;;;24.20;96.10;;;;;;10467586;28;20304;-84
2021/08/20 15:39:30;;;;;;;4.40;4.10;;;24.20;96.70;;;;;;10470081;28;20220;-84
2021/08/20 15:44:32;;;;;;;3.90;3.60;;;24.20;96.10;;;;;;10465350;28;20654;-84
2021/08/20 15:49:36;;;;;;;5.00;4.30;;;24.10;96.40;;;;;;10470326;28;20242;-84
2021/08/20 15:54:40;;;;;;;4.50;4.10;;;24.00;97.20;;;;;;10481998;28;20219;-83
2021/08/20 15:59:44;;;;;;;4.60;4.20;;;24.00;97.40;;;;;;10468821;28;20289;-84
2021/08/20 16:04:51;;;;;;;4.30;4.00;;;23.90;96.80;;;;;;10456222;28;20208;-85
2021/08/20 16:09:57;;;;;;;4.67;4.37;;;23.80;99.30;;;;;;10463270;28;20219;-85
2021/08/20 16:15:05;;;;;;;5.17;4.77;;;23.70;98.10;;;;;;10450970;28;20214;-84
2021/08/20 16:20:14;;;;;;;9.30;8.50;;;23.70;98.60;;;;;;10460856;28;20213;-84
2021/08/20 16:25:18;;;;;;;6.33;5.93;;;23.70;99.60;;;;;;10463262;28;20565;-86
2021/08/20 16:30:20;;;;;;;5.60;5.20;;;23.70;99.50;;;;;;10462304;28;20225;-86
2021/08/20 16:35:25;;;;;;;11.20;10.23;;;23.60;99.90;;;;;;10463091;28;20644;-86
2021/08/20 16:40:30;;;;;;;4.73;4.43;;;23.70;99.90;;;;;;10462612;28;20270;-86
2021/08/20 16:45:32;;;;;;;6.60;6.17;;;23.70;97.40;;;;;;10479274;28;20700;-86
2021/08/20 16:50:41;;;;;;;8.50;7.90;;;23.80;98.40;;;;;;10478557;28;20228;-86
2021/08/20 16:55:44;;;;;;;7.13;6.67;;;23.80;98.30;;;;;;10462207;28;20200;-86
2021/08/20 17:00:47;;;;;;;5.73;5.30;;;23.80;99.90;;;;;;10473669;28;20214;-86
2021/08/20 17:05:51;;;;;;;4.77;4.47;;;23.70;98.10;;;;;;10461152;28;20227;-86
2021/08/20 17:10:53;;;;;;;5.40;5.00;;;23.70;98.20;;;;;;10459200;28;20208;-86
2021/08/20 17:15:56;;;;;;;7.03;6.53;;;23.70;98.80;;;;;;10476080;28;20197;-86
2021/08/20 17:20:59;;;;;;;11.10;10.40;;;23.70;99.90;;;;;;10478563;28;20216;-86
2021/08/20 17:26:02;;;;;;;5.73;5.43;;;23.60;98.80;;;;;;10479416;28;20311;-85
2021/08/20 17:31:04;;;;;;;8.07;5.90;;;23.60;99.80;;;;;;10466572;28;20638;-86
2021/08/20 17:36:08;;;;;;;7.87;7.20;;;23.60;98.50;;;;;;10501788;28;20728;-86
2021/08/20 17:41:10;;;;;;;5.00;4.70;;;23.50;99.20;;;;;;10457066;28;20723;-86
2021/08/20 17:46:12;;;;;;;4.20;3.90;;;23.40;99.90;;;;;;10498530;28;20247;-86
2021/08/20 17:51:16;;;;;;;7.27;6.67;;;23.30;99.90;;;;;;10494910;22;20711;-85
2021/08/20 17:56:18;;;;;;;5.70;4.33;;;23.10;99.90;;;;;;10437972;28;20205;-85
2021/08/20 18:01:20;;;;;;;4.67;4.37;;;23.00;99.80;;;;;;10428069;28;20234;-87
2021/08/20 18:06:32;;;;;;;5.93;4.67;;;22.90;99.40;;;;;;10395851;28;20228;-87
2021/08/20 18:11:35;;;;;;;4.97;4.57;;;22.80;99.90;;;;;;10377859;28;20233;-84
2021/08/20 18:16:37;;;;;;;4.80;4.27;;;22.60;99.90;;;;;;10362072;28;20261;-83
2021/08/20 18:21:41;;;;;;;4.50;4.20;;;22.40;99.90;;;;;;10359881;28;20295;-82
2021/08/20 18:26:49;;;;;;;4.37;4.07;;;22.30;99.90;;;;;;10358787;28;20221;-85
2021/08/20 18:31:53;;;;;;;4.33;4.03;;;22.10;99.90;;;;;;10356766;28;20225;-82
2021/08/20 18:42:30;;;;;;;5.40;4.90;;;21.90;99.90;;;;;;10386054;28;20226;-83
2021/08/20 18:47:32;;;;;;;4.97;4.57;;;21.70;99.90;;;;;;10404569;28;20233;-84
2021/08/20 18:52:36;;;;;;;4.80;4.40;;;21.60;99.90;;;;;;10384295;28;20713;-84
2021/08/20 18:57:38;;;;;;;4.40;4.10;;;21.50;99.90;;;;;;10388840;28;20252;-82
2021/08/20 19:02:41;;;;;;;5.30;4.90;;;21.40;99.90;;;;;;10386603;28;20236;-82
2021/08/20 19:07:45;;;;;;;5.30;4.90;;;21.40;99.90;;;;;;10416173;28;20586;-82
2021/08/20 19:12:47;;;;;;;4.90;4.53;;;21.30;99.90;;;;;;10397676;28;20222;-83
2021/08/20 19:17:49;;;;;;;5.47;4.97;;;21.20;99.90;;;;;;10399292;28;20272;-83
2021/08/20 19:22:53;;;;;;;4.77;4.37;;;21.20;99.90;;;;;;10397964;28;20284;-83
2021/08/20 19:27:55;;;;;;;5.80;5.30;;;21.10;99.90;;;;;;10376633;28;20701;-83
2021/08/20 19:32:58;;;;;;;5.40;5.00;;;21.00;99.90;;;;;;10399520;28;20288;-84
2021/08/20 19:38:01;;;;;;;5.17;4.77;;;20.90;99.90;;;;;;10397116;28;20331;-82
2021/08/20 19:43:08;;;;;;;5.60;5.10;;;20.90;99.90;;;;;;10397688;28;20310;-82
2021/08/20 19:48:10;;;;;;;5.10;4.60;;;20.90;99.90;;;;;;10390390;28;20222;-82
2021/08/20 19:53:13;;;;;;;5.83;5.33;;;20.90;99.90;;;;;;10399830;28;20574;-82
2021/08/20 19:58:15;;;;;;;5.70;5.20;;;20.80;99.90;;;;;;10380284;28;20642;-82
2021/08/20 20:03:26;;;;;;;6.53;5.80;;;20.70;99.90;;;;;;10394822;28;20233;-82
2021/08/20 20:08:29;;;;;;;5.37;4.97;;;20.70;99.90;;;;;;10378768;28;20260;-82
2021/08/20 20:13:32;;;;;;;6.17;5.67;;;20.70;99.90;;;;;;10380256;28;20216;-81
2021/08/20 20:18:34;;;;;;;7.37;6.77;;;20.60;99.90;;;;;;10396644;28;20208;-84
2021/08/20 20:23:37;;;;;;;7.53;6.83;;;20.60;99.90;;;;;;10395189;28;20205;-81
2021/08/20 20:28:40;;;;;;;9.63;6.50;;;20.60;99.90;;;;;;10369861;28;20209;-82
2021/08/20 20:33:45;;;;;;;6.43;5.83;;;20.50;99.90;;;;;;10357494;28;20194;-82
2021/08/20 20:38:49;;;;;;;6.57;5.97;;;20.50;99.90;;;;;;10377202;28;20701;-81
2021/08/20 20:44:00;;;;;;;5.60;5.20;;;20.40;99.90;;;;;;10385745;28;20214;-82
2021/08/20 20:49:05;;;;;;;6.90;5.57;;;20.40;99.90;;;;;;10401661;28;20244;-83
2021/08/20 20:54:12;;;;;;;5.93;5.30;;;20.30;99.90;;;;;;10366212;28;20206;-82
2021/08/20 20:59:15;;;;;;;4.87;4.57;;;20.30;99.90;;;;;;10374156;28;20222;-82
2021/08/20 21:04:20;;;;;;;5.17;4.67;;;20.20;99.90;;;;;;10371641;28;20289;-82
2021/08/20 21:09:27;;;;;;;5.53;5.13;;;20.20;99.90;;;;;;10375734;28;20229;-82
2021/08/20 21:14:34;;;;;;;5.43;4.93;;;20.10;99.90;;;;;;10375630;28;20246;-82
2021/08/20 21:19:44;;;;;;;5.77;5.20;;;20.20;99.90;;;;;;10389822;28;20675;-82
2021/08/20 21:24:48;;;;;;;7.30;5.57;;;20.10;99.90;;;;;;10374973;28;20206;-83
2021/08/20 21:29:56;;;;;;;6.13;5.63;;;20.10;99.90;;;;;;10365980;28;20309;-82
2021/08/20 21:34:58;;;;;;;6.13;5.63;;;20.10;99.90;;;;;;10356889;28;20230;-85
2021/08/20 21:40:06;;;;;;;5.87;5.37;;;20.00;99.90;;;;;;10370960;28;20230;-83
2021/08/20 21:45:14;;;;;;;5.93;5.50;;;20.00;99.90;;;;;;10406908;28;20229;-82
2021/08/20 21:50:18;;;;;;;5.87;5.37;;;19.90;99.90;;;;;;10369251;28;20265;-82
2021/08/20 21:55:22;;;;;;;5.67;5.17;;;19.90;99.90;;;;;;10369600;28;20233;-82
2021/08/20 22:00:24;;;;;;;5.43;4.93;;;19.90;99.90;;;;;;10367207;28;20225;-82
2021/08/20 22:05:27;;;;;;;5.40;5.00;;;19.80;99.90;;;;;;10388793;28;20221;-82
2021/08/20 22:10:31;;;;;;;5.67;5.27;;;19.80;99.90;;;;;;10393251;28;20765;-82
2021/08/20 22:15:36;;;;;;;5.30;4.90;;;19.80;99.90;;;;;;10391598;28;20202;-84
2021/08/20 22:20:40;;;;;;;4.80;4.50;;;19.80;99.90;;;;;;10392013;28;20221;-84
2021/08/20 22:25:58;;;;;;;5.20;4.70;;;19.70;99.90;;;;;;10371592;28;20226;-82
2021/08/20 22:31:01;;;;;;;5.53;5.03;;;19.70;99.90;;;;;;10358036;28;20232;-84
2021/08/20 22:36:03;;;;;;;4.80;4.40;;;19.70;99.90;;;;;;10396479;28;20649;-84
2021/08/20 22:41:07;;;;;;;4.60;4.30;;;19.70;99.90;;;;;;10389216;28;20297;-82
2021/08/20 22:46:09;;;;;;;5.47;5.07;;;19.60;99.90;;;;;;10389223;28;20221;-82
2021/08/20 22:51:12;;;;;;;4.10;3.80;;;19.60;99.90;;;;;;10368392;28;20233;-84
2021/08/20 22:56:15;;;;;;;5.80;5.17;;;19.50;99.90;;;;;;10374244;28;20202;-85
2021/08/20 23:01:17;;;;;;;5.40;5.00;;;19.50;99.90;;;;;;10390324;28;20225;-82
2021/08/20 23:06:19;;;;;;;5.00;4.60;;;19.60;99.90;;;;;;10360750;28;20313;-85
2021/08/20 23:11:23;;;;;;;4.70;4.40;;;19.60;99.90;;;;;;10376469;28;20225;-82
2021/08/20 23:16:25;;;;;;;6.13;5.40;;;19.60;99.90;;;;;;10374381;28;20293;-83
2021/08/20 23:21:27;;;;;;;5.70;5.20;;;19.60;99.90;;;;;;10376352;28;20230;-82
2021/08/20 23:26:31;;;;;;;4.80;4.40;;;19.70;99.90;;;;;;10376648;28;20244;-82
2021/08/20 23:31:33;;;;;;;4.67;4.27;;;19.70;99.90;;;;;;10380586;28;20217;-83
2021/08/20 23:36:35;;;;;;;4.67;4.20;;;19.70;99.90;;;;;;10427788;28;20244;-82
2021/08/20 23:41:39;;;;;;;4.67;4.27;;;19.70;99.90;;;;;;10397351;28;20221;-82
2021/08/20 23:46:41;;;;;;;5.00;4.57;;;19.80;99.90;;;;;;10380418;28;20847;-82
2021/08/20 23:51:44;;;;;;;5.70;5.30;;;19.80;99.90;;;;;;10463959;22;20232;-85
2021/08/20 23:56:48;;;;;;;5.00;4.60;;;19.80;99.90;;;;;;10493645;28;20188;-85
